createdAt,value
2024-05-09T00:00:44.234Z,0
2024-05-09T00:01:58.636Z,0
2024-05-09T00:03:12.977Z,0
2024-05-09T00:04:27.248Z,0
2024-05-09T00:05:41.527Z,0
2024-05-09T00:06:55.985Z,0
2024-05-09T00:08:10.332Z,0
2024-05-09T00:09:23.709Z,0
2024-05-09T00:10:37.059Z,0
2024-05-09T00:11:51.395Z,0
2024-05-09T00:13:05.664Z,0
2024-05-09T00:14:19.954Z,0
2024-05-09T00:15:34.368Z,0
2024-05-09T00:16:48.688Z,0
2024-05-09T00:18:03.089Z,0
2024-05-09T00:19:17.425Z,0
2024-05-09T00:20:31.694Z,0
2024-05-09T00:21:46.103Z,0
2024-05-09T00:23:00.423Z,0
2024-05-09T00:24:14.702Z,0
2024-05-09T00:25:29.000Z,0
2024-05-09T00:26:43.402Z,0
2024-05-09T00:27:57.726Z,0
2024-05-09T00:29:11.998Z,0
2024-05-09T00:30:26.279Z,0
2024-05-09T00:31:40.696Z,0
2024-05-09T00:32:55.014Z,0
2024-05-09T00:34:09.300Z,0
2024-05-09T00:35:23.571Z,0
2024-05-09T00:36:37.990Z,0
2024-05-09T00:37:52.313Z,0
2024-05-09T00:39:06.598Z,0
2024-05-09T00:40:20.865Z,0
2024-05-09T00:41:35.277Z,0
2024-05-09T00:42:49.607Z,0
2024-05-09T00:44:03.880Z,0
2024-05-09T00:45:18.159Z,0
2024-05-09T00:46:32.581Z,0
2024-05-09T00:47:46.888Z,0
2024-05-09T00:49:01.188Z,0
2024-05-09T00:50:15.457Z,0
2024-05-09T00:51:29.876Z,0
2024-05-09T00:52:44.191Z,0
2024-05-09T00:53:58.467Z,0
2024-05-09T00:55:12.752Z,0
2024-05-09T00:57:41.492Z,0
2024-05-09T00:58:55.764Z,0
2024-05-09T01:00:10.049Z,0
2024-05-09T01:01:24.463Z,0
2024-05-09T01:02:38.786Z,0
2024-05-09T01:03:53.122Z,0
2024-05-09T01:05:06.505Z,0
2024-05-09T01:06:20.842Z,0
2024-05-09T01:07:34.188Z,0
2024-05-09T01:08:48.480Z,0
2024-05-09T01:10:02.884Z,0
2024-05-09T01:11:17.208Z,0
2024-05-09T01:12:31.486Z,0
2024-05-09T01:13:45.761Z,0
2024-05-09T01:15:00.184Z,0
2024-05-09T01:16:14.510Z,0
2024-05-09T01:17:28.780Z,0
2024-05-09T01:18:43.180Z,0
2024-05-09T01:19:57.592Z,0
2024-05-09T01:21:11.917Z,0
2024-05-09T01:22:26.195Z,0
2024-05-09T01:23:40.474Z,0
2024-05-09T01:24:54.882Z,0
2024-05-09T01:26:09.174Z,0
2024-05-09T01:27:23.455Z,0
2024-05-09T01:28:37.735Z,0
2024-05-09T01:29:52.146Z,0
2024-05-09T01:31:06.475Z,0
2024-05-09T01:32:20.767Z,0
2024-05-09T01:33:35.037Z,0
2024-05-09T01:34:49.446Z,0
2024-05-09T01:36:03.763Z,0
2024-05-09T01:37:18.049Z,0
2024-05-09T01:38:32.323Z,0
2024-05-09T01:39:46.733Z,0
2024-05-09T01:42:15.351Z,0
2024-05-09T01:43:29.634Z,0
2024-05-09T01:44:44.034Z,0
2024-05-09T01:45:58.352Z,0
2024-05-09T01:47:12.634Z,0
2024-05-09T01:48:26.925Z,0
2024-05-09T01:49:41.320Z,0
2024-05-09T01:50:55.644Z,0
2024-05-09T01:52:09.928Z,0
2024-05-09T01:53:24.216Z,0
2024-05-09T01:54:38.614Z,0
2024-05-09T01:55:52.945Z,0
2024-05-09T01:57:07.222Z,0
2024-05-09T01:58:21.499Z,0
2024-05-09T01:59:35.925Z,0
2024-05-09T02:00:50.240Z,0
2024-05-09T02:02:04.514Z,0
2024-05-09T02:03:18.797Z,0
2024-05-09T02:04:33.261Z,0
2024-05-09T02:05:47.612Z,0
2024-05-09T02:07:01.035Z,0
2024-05-09T02:08:14.371Z,0
2024-05-09T02:09:28.699Z,0
2024-05-09T02:10:42.983Z,0
2024-05-09T02:11:57.269Z,0
2024-05-09T02:13:11.663Z,0
2024-05-09T02:14:25.988Z,0
2024-05-09T02:15:40.275Z,0
2024-05-09T02:16:54.559Z,0
2024-05-09T02:18:08.972Z,0
2024-05-09T02:19:23.279Z,0
2024-05-09T02:20:37.561Z,0
2024-05-09T02:21:51.851Z,0
2024-05-09T02:23:06.264Z,0
2024-05-09T02:24:20.584Z,0
2024-05-09T02:25:34.873Z,0
2024-05-09T02:26:49.146Z,0
2024-05-09T02:28:03.561Z,0
2024-05-09T02:29:17.868Z,0
2024-05-09T02:30:32.158Z,0
2024-05-09T02:31:46.445Z,0
2024-05-09T02:33:00.837Z,0
2024-05-09T02:34:15.180Z,0
2024-05-09T02:35:29.454Z,0
2024-05-09T02:36:43.729Z,0
2024-05-09T02:37:58.138Z,0
2024-05-09T02:39:12.528Z,0
2024-05-09T02:40:25.914Z,0
2024-05-09T02:41:40.254Z,0
2024-05-09T02:42:54.663Z,0
2024-05-09T02:44:08.992Z,0
2024-05-09T02:45:22.344Z,0
2024-05-09T02:46:36.622Z,0
2024-05-09T02:47:51.029Z,0
2024-05-09T02:49:05.364Z,0
2024-05-09T02:50:19.637Z,0
2024-05-09T02:51:33.924Z,0
2024-05-09T02:52:48.319Z,0
2024-05-09T02:54:02.644Z,0
2024-05-09T02:55:16.919Z,0
2024-05-09T02:56:31.201Z,0
2024-05-09T02:57:45.613Z,0
2024-05-09T02:58:59.937Z,0
2024-05-09T03:00:14.226Z,0
2024-05-09T03:01:28.508Z,0
2024-05-09T03:02:42.907Z,0
2024-05-09T03:03:57.226Z,0
2024-05-09T03:05:11.465Z,0
2024-05-09T03:06:25.681Z,0
2024-05-09T03:07:39.918Z,0
2024-05-09T03:08:54.220Z,0
2024-05-09T03:10:08.504Z,0
2024-05-09T03:11:22.788Z,0
2024-05-09T03:12:37.015Z,0
2024-05-09T03:13:51.322Z,0
2024-05-09T03:15:05.548Z,0
2024-05-09T03:16:19.831Z,0
2024-05-09T03:17:33.182Z,0
2024-05-09T03:18:47.464Z,0
2024-05-09T03:20:01.761Z,0
2024-05-09T03:21:16.035Z,0
2024-05-09T03:22:29.400Z,0
2024-05-09T03:23:43.683Z,0
2024-05-09T03:24:57.973Z,0
2024-05-09T03:26:11.257Z,0
2024-05-09T03:27:25.494Z,0
2024-05-09T03:28:39.795Z,0
2024-05-09T03:29:54.030Z,0
2024-05-09T03:31:08.262Z,0
2024-05-09T03:32:22.493Z,0
2024-05-09T03:33:36.708Z,0
2024-05-09T03:34:51.021Z,0
2024-05-09T03:36:05.245Z,0
2024-05-09T03:37:19.478Z,0
2024-05-09T03:38:33.715Z,0
2024-05-09T03:39:47.933Z,0
2024-05-09T03:41:02.228Z,0
2024-05-09T03:42:16.483Z,0
2024-05-09T03:43:30.705Z,0
2024-05-09T03:44:44.926Z,5
2024-05-09T03:45:59.156Z,5
2024-05-09T03:47:13.448Z,5
2024-05-09T03:48:27.693Z,5
2024-05-09T03:49:41.921Z,5
2024-05-09T03:50:56.159Z,5
2024-05-09T03:52:10.385Z,5
2024-05-09T03:53:24.677Z,5
2024-05-09T03:54:38.921Z,11
2024-05-09T03:55:53.136Z,11
2024-05-09T03:57:07.436Z,11
2024-05-09T03:58:21.707Z,11
2024-05-09T03:59:36.009Z,11
2024-05-09T04:00:50.293Z,11
2024-05-09T04:02:03.590Z,16
2024-05-09T04:03:17.826Z,16
2024-05-09T04:04:32.123Z,16
2024-05-09T04:05:46.353Z,16
2024-05-09T04:07:00.709Z,16
2024-05-09T04:08:14.934Z,16
2024-05-09T04:09:29.171Z,22
2024-05-09T04:10:43.469Z,22
2024-05-09T04:11:57.699Z,22
2024-05-09T04:13:11.927Z,22
2024-05-09T04:14:26.146Z,22
2024-05-09T04:15:40.383Z,28
2024-05-09T04:16:54.680Z,28
2024-05-09T04:18:08.919Z,28
2024-05-09T04:19:23.154Z,28
2024-05-09T04:20:37.369Z,28
2024-05-09T04:21:51.608Z,33
2024-05-09T04:23:05.908Z,33
2024-05-09T04:24:20.145Z,33
2024-05-09T04:25:34.381Z,33
2024-05-09T04:26:48.591Z,33
2024-05-09T04:28:02.833Z,39
2024-05-09T04:29:17.116Z,39
2024-05-09T04:30:31.357Z,39
2024-05-09T04:31:45.601Z,39
2024-05-09T04:32:59.826Z,39
2024-05-09T04:34:14.046Z,39
2024-05-09T04:35:28.343Z,45
2024-05-09T04:36:42.580Z,45
2024-05-09T04:37:56.804Z,45
2024-05-09T04:39:11.036Z,45
2024-05-09T04:40:25.271Z,45
2024-05-09T04:41:39.569Z,50
2024-05-09T04:42:53.803Z,50
2024-05-09T04:44:08.046Z,50
2024-05-09T04:45:22.254Z,50
2024-05-09T04:46:36.641Z,56
2024-05-09T04:47:50.922Z,56
2024-05-09T04:49:05.169Z,56
2024-05-09T04:50:19.393Z,56
2024-05-09T04:51:33.628Z,61
2024-05-09T04:52:47.862Z,61
2024-05-09T04:54:02.145Z,61
2024-05-09T04:55:16.402Z,61
2024-05-09T04:56:30.620Z,61
2024-05-09T04:57:44.856Z,67
2024-05-09T04:58:59.073Z,67
2024-05-09T05:00:13.373Z,67
2024-05-09T05:01:27.606Z,73
2024-05-09T05:02:41.846Z,73
2024-05-09T05:03:56.062Z,73
2024-05-09T05:05:10.286Z,73
2024-05-09T05:06:24.597Z,73
2024-05-09T05:07:38.832Z,73
2024-05-09T05:08:53.072Z,78
2024-05-09T05:10:07.283Z,78
2024-05-09T05:11:21.518Z,78
2024-05-09T05:12:35.826Z,84
2024-05-09T05:13:50.065Z,84
2024-05-09T05:15:04.291Z,84
2024-05-09T05:16:18.520Z,84
2024-05-09T05:17:32.803Z,90
2024-05-09T05:18:47.105Z,90
2024-05-09T05:20:01.384Z,90
2024-05-09T05:21:14.664Z,90
2024-05-09T05:22:28.902Z,95
2024-05-09T05:23:43.206Z,95
2024-05-09T05:24:57.437Z,95
2024-05-09T05:26:11.674Z,95
2024-05-09T05:27:25.891Z,95
2024-05-09T05:28:40.130Z,95
2024-05-09T05:29:54.427Z,95
2024-05-09T05:31:08.655Z,95
2024-05-09T05:32:22.888Z,95
2024-05-09T05:33:37.242Z,101
2024-05-09T05:34:51.460Z,101
2024-05-09T05:36:05.758Z,106
2024-05-09T05:37:20.000Z,106
2024-05-09T05:38:34.235Z,106
2024-05-09T05:39:48.464Z,112
2024-05-09T05:41:02.689Z,112
2024-05-09T05:42:16.995Z,112
2024-05-09T05:43:31.226Z,118
2024-05-09T05:44:45.460Z,118
2024-05-09T05:45:59.678Z,123
2024-05-09T05:47:13.903Z,123
2024-05-09T05:48:28.203Z,123
2024-05-09T05:49:42.450Z,129
2024-05-09T05:50:56.683Z,129
2024-05-09T05:52:10.909Z,129
2024-05-09T05:53:25.125Z,135
2024-05-09T05:54:39.422Z,135
2024-05-09T05:55:53.675Z,135
2024-05-09T05:57:07.891Z,140
2024-05-09T05:58:22.133Z,140
2024-05-09T05:59:36.358Z,140
2024-05-09T06:00:50.656Z,146
2024-05-09T06:02:04.902Z,140
2024-05-09T06:03:19.115Z,140
2024-05-09T06:04:33.348Z,146
2024-05-09T06:05:47.570Z,146
2024-05-09T06:07:01.876Z,146
2024-05-09T06:08:16.121Z,146
2024-05-09T06:09:30.342Z,146
2024-05-09T06:10:44.571Z,151
2024-05-09T06:11:58.787Z,151
2024-05-09T06:13:13.090Z,151
2024-05-09T06:14:27.331Z,157
2024-05-09T06:15:41.565Z,157
2024-05-09T06:16:55.797Z,163
2024-05-09T06:18:10.005Z,163
2024-05-09T06:19:24.382Z,163
2024-05-09T06:20:38.649Z,163
2024-05-09T06:21:52.003Z,168
2024-05-09T06:23:05.298Z,168
2024-05-09T06:24:19.537Z,174
2024-05-09T06:25:33.771Z,174
2024-05-09T06:26:47.998Z,180
2024-05-09T06:28:02.221Z,180
2024-05-09T06:29:16.507Z,185
2024-05-09T06:30:30.763Z,191
2024-05-09T06:31:44.994Z,185
2024-05-09T06:32:59.216Z,185
2024-05-09T06:34:13.435Z,191
2024-05-09T06:35:27.735Z,185
2024-05-09T06:36:41.984Z,196
2024-05-09T06:37:56.211Z,196
2024-05-09T06:39:10.439Z,202
2024-05-09T06:40:24.656Z,202
2024-05-09T06:41:38.951Z,202
2024-05-09T06:42:53.193Z,208
2024-05-09T06:44:07.424Z,208
2024-05-09T06:45:21.652Z,213
2024-05-09T06:46:35.879Z,219
2024-05-09T06:47:50.184Z,225
2024-05-09T06:49:04.418Z,236
2024-05-09T06:50:18.638Z,247
2024-05-09T06:51:32.875Z,230
2024-05-09T06:52:47.094Z,230
2024-05-09T06:54:01.452Z,230
2024-05-09T06:55:15.746Z,230
2024-05-09T06:56:29.035Z,236
2024-05-09T06:57:43.264Z,236
2024-05-09T06:58:57.560Z,236
2024-05-09T07:00:11.809Z,236
2024-05-09T07:01:26.021Z,236
2024-05-09T07:02:40.262Z,236
2024-05-09T07:03:54.476Z,236
2024-05-09T07:05:08.782Z,236
2024-05-09T07:06:23.031Z,230
2024-05-09T07:07:37.252Z,230
2024-05-09T07:08:51.482Z,230
2024-05-09T07:10:05.698Z,264
2024-05-09T07:11:20.003Z,281
2024-05-09T07:12:34.254Z,264
2024-05-09T07:13:48.466Z,236
2024-05-09T07:15:02.691Z,230
2024-05-09T07:16:16.915Z,230
2024-05-09T07:17:31.223Z,241
2024-05-09T07:18:45.461Z,236
2024-05-09T07:19:59.684Z,236
2024-05-09T07:21:13.921Z,236
2024-05-09T07:22:28.142Z,247
2024-05-09T07:23:42.435Z,241
2024-05-09T07:24:56.690Z,241
2024-05-09T07:26:10.904Z,247
2024-05-09T07:27:25.202Z,253
2024-05-09T07:28:38.534Z,253
2024-05-09T07:29:52.802Z,258
2024-05-09T07:31:06.104Z,270
2024-05-09T07:32:20.342Z,270
2024-05-09T07:33:34.640Z,275
2024-05-09T07:34:48.867Z,281
2024-05-09T07:36:03.096Z,281
2024-05-09T07:37:17.327Z,281
2024-05-09T07:38:31.546Z,286
2024-05-09T07:39:45.862Z,286
2024-05-09T07:41:00.103Z,292
2024-05-09T07:42:14.324Z,286
2024-05-09T07:43:28.541Z,292
2024-05-09T07:44:42.783Z,286
2024-05-09T07:45:57.073Z,286
2024-05-09T07:47:11.321Z,286
2024-05-09T07:48:25.533Z,292
2024-05-09T07:49:39.769Z,292
2024-05-09T07:50:53.988Z,286
2024-05-09T07:52:08.295Z,292
2024-05-09T07:53:22.545Z,292
2024-05-09T07:54:36.760Z,292
2024-05-09T07:55:50.997Z,292
2024-05-09T07:57:05.212Z,286
2024-05-09T07:58:19.518Z,286
2024-05-09T07:59:33.767Z,286
2024-05-09T08:00:47.984Z,286
2024-05-09T08:02:02.263Z,275
2024-05-09T08:03:15.606Z,292
2024-05-09T08:04:29.888Z,292
2024-05-09T08:05:43.245Z,298
2024-05-09T08:06:56.560Z,298
2024-05-09T08:08:10.844Z,303
2024-05-09T08:09:24.138Z,309
2024-05-09T08:10:38.373Z,320
2024-05-09T08:11:52.677Z,326
2024-05-09T08:13:06.908Z,326
2024-05-09T08:14:21.151Z,331
2024-05-09T08:15:35.361Z,343
2024-05-09T08:16:49.588Z,354
2024-05-09T08:18:03.903Z,365
2024-05-09T08:19:18.133Z,376
2024-05-09T08:20:32.356Z,393
2024-05-09T08:21:46.585Z,410
2024-05-09T08:23:00.814Z,433
2024-05-09T08:24:15.106Z,500
2024-05-09T08:25:29.362Z,630
2024-05-09T08:26:43.572Z,1423
2024-05-09T08:27:57.815Z,1766
2024-05-09T08:29:12.037Z,1698
2024-05-09T08:30:26.335Z,1867
2024-05-09T08:31:40.572Z,1867
2024-05-09T08:32:54.797Z,1929
2024-05-09T08:34:09.029Z,1940
2024-05-09T08:36:37.562Z,1935
2024-05-09T08:37:51.796Z,1800
2024-05-09T08:39:06.021Z,1890
2024-05-09T08:40:20.314Z,1867
2024-05-09T08:41:33.649Z,1906
2024-05-09T08:42:47.933Z,1906
2024-05-09T08:44:02.216Z,2115
2024-05-09T08:45:16.487Z,2283
2024-05-09T08:46:29.791Z,2199
2024-05-09T08:47:44.031Z,2244
2024-05-09T08:48:58.252Z,1991
2024-05-09T08:50:12.477Z,2289
2024-05-09T08:51:26.706Z,2233
2024-05-09T08:52:41.005Z,2334
2024-05-09T08:53:55.245Z,2435
2024-05-09T08:55:09.481Z,2182
2024-05-09T08:56:23.707Z,2126
2024-05-09T08:57:37.934Z,2289
2024-05-09T09:00:06.477Z,2497
2024-05-09T09:01:20.706Z,2587
2024-05-09T09:02:34.926Z,2593
2024-05-09T09:03:49.142Z,2593
2024-05-09T09:05:03.461Z,2587
2024-05-09T09:06:17.687Z,2508
2024-05-09T09:07:31.913Z,2430
2024-05-09T09:10:00.367Z,2238
2024-05-09T09:11:14.673Z,2497
2024-05-09T09:12:28.918Z,2722
2024-05-09T09:13:43.137Z,2711
2024-05-09T09:14:57.378Z,2716
2024-05-09T09:16:11.596Z,2705
2024-05-09T09:17:25.957Z,2430
2024-05-09T09:18:40.237Z,2542
2024-05-09T09:19:53.592Z,2626
2024-05-09T09:21:06.923Z,2553
2024-05-09T09:22:21.212Z,2767
2024-05-09T09:23:35.492Z,2593
2024-05-09T09:24:49.767Z,2649
2024-05-09T09:26:03.079Z,2745
2024-05-09T09:27:17.312Z,2694
2024-05-09T09:28:31.534Z,2671
2024-05-09T09:29:45.778Z,2733
2024-05-09T09:31:00.002Z,2683
2024-05-09T09:32:14.293Z,2812
2024-05-09T09:33:28.544Z,2936
2024-05-09T09:34:42.760Z,2964
2024-05-09T09:35:56.985Z,2913
2024-05-09T09:37:11.225Z,2745
2024-05-09T09:38:25.525Z,2773
2024-05-09T09:39:39.764Z,2638
2024-05-09T09:40:53.986Z,2548
2024-05-09T09:42:08.209Z,2767
2024-05-09T09:43:22.434Z,2835
2024-05-09T09:44:36.743Z,2840
2024-05-09T09:45:50.989Z,2739
2024-05-09T09:47:05.222Z,2790
2024-05-09T09:48:19.441Z,2666
2024-05-09T09:49:33.676Z,2705
2024-05-09T09:50:47.965Z,2835
2024-05-09T09:52:02.213Z,2981
2024-05-09T09:53:16.433Z,2896
2024-05-09T09:54:30.669Z,2716
2024-05-09T09:55:44.880Z,2716
2024-05-09T09:56:59.244Z,2745
2024-05-09T09:58:13.537Z,2643
2024-05-09T09:59:26.895Z,2812
2024-05-09T10:00:40.183Z,2756
2024-05-09T10:01:54.420Z,2857
2024-05-09T10:03:08.651Z,2868
2024-05-09T10:04:22.877Z,2806
2024-05-09T10:05:37.112Z,2790
2024-05-09T10:06:51.410Z,2891
2024-05-09T10:08:05.648Z,3031
2024-05-09T10:09:19.885Z,2885
2024-05-09T10:10:34.093Z,2919
2024-05-09T10:11:48.322Z,2823
2024-05-09T10:13:02.623Z,2970
2024-05-09T10:14:16.870Z,2896
2024-05-09T10:15:31.099Z,3043
2024-05-09T10:16:45.327Z,2885
2024-05-09T10:17:59.556Z,2919
2024-05-09T10:19:13.851Z,2992
2024-05-09T10:20:28.106Z,3060
2024-05-09T10:21:42.319Z,3099
2024-05-09T10:22:56.557Z,3060
2024-05-09T10:24:10.786Z,2857
2024-05-09T10:25:25.087Z,3020
2024-05-09T10:26:39.316Z,1513
2024-05-09T10:27:53.555Z,2896
2024-05-09T10:29:07.784Z,2863
2024-05-09T10:30:22.010Z,2829
2024-05-09T10:31:36.364Z,2829
2024-05-09T10:32:50.644Z,3031
2024-05-09T10:34:04.002Z,860
2024-05-09T10:35:17.302Z,2700
2024-05-09T10:36:31.550Z,2846
2024-05-09T10:37:45.778Z,2514
2024-05-09T10:39:00.001Z,900
2024-05-09T10:40:14.238Z,523
2024-05-09T10:41:28.520Z,556
2024-05-09T10:42:42.770Z,2396
2024-05-09T10:43:57.004Z,2503
2024-05-09T10:45:11.225Z,2851
2024-05-09T10:46:25.443Z,2829
2024-05-09T10:47:39.760Z,2835
2024-05-09T10:48:53.991Z,2722
2024-05-09T10:50:08.232Z,2880
2024-05-09T10:51:22.446Z,2801
2024-05-09T10:52:36.667Z,1726
2024-05-09T10:53:50.967Z,652
2024-05-09T10:55:05.219Z,950
2024-05-09T10:56:19.440Z,748
2024-05-09T10:57:33.678Z,911
2024-05-09T10:58:47.909Z,596
2024-05-09T11:00:02.193Z,438
2024-05-09T11:01:16.450Z,388
2024-05-09T11:02:30.668Z,393
2024-05-09T11:03:44.902Z,376
2024-05-09T11:04:59.118Z,388
2024-05-09T11:06:13.477Z,399
2024-05-09T11:07:27.758Z,438
2024-05-09T11:08:41.102Z,945
2024-05-09T11:09:55.375Z,691
2024-05-09T11:11:09.693Z,1023
2024-05-09T11:12:23.970Z,2829
2024-05-09T11:13:38.244Z,3330
2024-05-09T11:14:52.527Z,3256
2024-05-09T11:16:05.891Z,3093
2024-05-09T11:17:20.169Z,3279
2024-05-09T11:18:33.502Z,3459
2024-05-09T11:19:47.786Z,3341
2024-05-09T11:21:02.078Z,3431
2024-05-09T11:22:16.379Z,3397
2024-05-09T11:23:30.653Z,3211
2024-05-09T11:24:44.947Z,3217
2024-05-09T11:25:59.234Z,3262
2024-05-09T11:27:13.523Z,3161
2024-05-09T11:28:27.813Z,3285
2024-05-09T11:29:42.083Z,3375
2024-05-09T11:30:55.445Z,3504
2024-05-09T11:32:09.745Z,3465
2024-05-09T11:33:24.036Z,3346
2024-05-09T11:34:37.380Z,3431
2024-05-09T11:35:50.744Z,3465
2024-05-09T11:37:05.024Z,3290
2024-05-09T11:38:18.358Z,3375
2024-05-09T11:39:32.641Z,3465
2024-05-09T11:40:46.946Z,3223
2024-05-09T11:42:01.220Z,3279
2024-05-09T11:43:15.504Z,3718
2024-05-09T11:44:29.796Z,3594
2024-05-09T11:45:44.072Z,3611
2024-05-09T11:46:58.372Z,3352
2024-05-09T11:48:12.665Z,3228
2024-05-09T11:49:26.942Z,3301
2024-05-09T11:50:41.224Z,3217
2024-05-09T11:51:55.519Z,3420
2024-05-09T11:53:09.823Z,3375
2024-05-09T11:54:24.100Z,3268
2024-05-09T11:55:38.396Z,3307
2024-05-09T11:56:51.677Z,3420
2024-05-09T11:58:05.991Z,3268
2024-05-09T11:59:20.218Z,3420
2024-05-09T12:00:34.451Z,3341
2024-05-09T12:01:48.687Z,2981
2024-05-09T12:03:02.900Z,3358
2024-05-09T12:04:17.215Z,3133
2024-05-09T12:05:31.458Z,3363
2024-05-09T12:06:45.693Z,3088
2024-05-09T12:07:59.900Z,3228
2024-05-09T12:09:14.132Z,3285
2024-05-09T12:10:28.431Z,3448
2024-05-09T12:11:42.673Z,3217
2024-05-09T12:12:56.917Z,3105
2024-05-09T12:14:11.141Z,2970
2024-05-09T12:15:25.364Z,2913
2024-05-09T12:16:39.657Z,2970
2024-05-09T12:17:53.902Z,2671
2024-05-09T12:19:08.136Z,2413
2024-05-09T12:20:22.369Z,2379
2024-05-09T12:21:36.583Z,2660
2024-05-09T12:22:50.884Z,2874
2024-05-09T12:24:05.145Z,3065
2024-05-09T12:25:19.361Z,3155
2024-05-09T12:26:33.597Z,3150
2024-05-09T12:27:47.870Z,3211
2024-05-09T12:29:02.173Z,3121
2024-05-09T12:30:16.463Z,2700
2024-05-09T12:31:29.753Z,2131
2024-05-09T12:32:43.980Z,2441
2024-05-09T12:33:58.301Z,3211
2024-05-09T12:35:12.541Z,3262
2024-05-09T12:36:26.758Z,3279
2024-05-09T12:37:41.122Z,3031
2024-05-09T12:38:55.332Z,2925
2024-05-09T12:40:09.636Z,3088
2024-05-09T12:41:23.892Z,2992
2024-05-09T12:42:38.114Z,2885
2024-05-09T12:43:52.345Z,2446
2024-05-09T12:45:06.579Z,2604
2024-05-09T12:46:20.877Z,2610
2024-05-09T12:47:35.124Z,646
2024-05-09T12:48:49.341Z,624
2024-05-09T12:50:03.571Z,2750
2024-05-09T12:51:17.805Z,3273
2024-05-09T12:52:32.108Z,3223
2024-05-09T12:53:46.352Z,3358
2024-05-09T12:55:00.567Z,2812
2024-05-09T12:56:14.800Z,2283
2024-05-09T12:57:29.034Z,2491
2024-05-09T12:58:43.338Z,2559
2024-05-09T12:59:57.569Z,2885
2024-05-09T13:01:11.793Z,3076
2024-05-09T13:02:26.024Z,3127
2024-05-09T13:03:40.250Z,3133
2024-05-09T13:04:54.562Z,3121
2024-05-09T13:06:08.800Z,3150
2024-05-09T13:07:23.031Z,3183
2024-05-09T13:08:37.244Z,3290
2024-05-09T13:09:51.478Z,3150
2024-05-09T13:11:05.786Z,2863
2024-05-09T13:12:20.032Z,3093
2024-05-09T13:13:34.264Z,3015
2024-05-09T13:14:48.484Z,2896
2024-05-09T13:16:02.717Z,2981
2024-05-09T13:17:17.016Z,3003
2024-05-09T13:18:31.262Z,2874
2024-05-09T13:19:45.492Z,2615
2024-05-09T13:20:59.711Z,2671
2024-05-09T13:22:13.930Z,2458
2024-05-09T13:23:28.289Z,2193
2024-05-09T13:24:42.588Z,2548
2024-05-09T13:25:55.888Z,2660
2024-05-09T13:27:10.104Z,2548
2024-05-09T13:28:24.407Z,2565
2024-05-09T13:29:38.664Z,2638
2024-05-09T13:30:52.881Z,2666
2024-05-09T13:32:07.115Z,2593
2024-05-09T13:33:21.332Z,2401
2024-05-09T13:34:35.648Z,2446
2024-05-09T13:35:49.890Z,2716
2024-05-09T13:37:04.110Z,2621
2024-05-09T13:38:18.337Z,2480
2024-05-09T13:39:32.558Z,2266
2024-05-09T13:40:46.856Z,2368
2024-05-09T13:42:01.113Z,1873
2024-05-09T13:43:15.332Z,1046
2024-05-09T13:44:29.573Z,1186
2024-05-09T13:45:43.785Z,2576
2024-05-09T13:46:58.085Z,2598
2024-05-09T13:48:12.341Z,2581
2024-05-09T13:49:26.553Z,2536
2024-05-09T13:50:40.797Z,2486
2024-05-09T13:51:55.013Z,2548
2024-05-09T13:54:23.563Z,545
2024-05-09T13:55:37.789Z,483
2024-05-09T13:56:52.085Z,455
2024-05-09T13:58:05.406Z,455
2024-05-09T13:59:19.685Z,483
2024-05-09T14:00:32.984Z,472
2024-05-09T14:03:01.510Z,601
2024-05-09T14:04:15.755Z,2165
2024-05-09T14:05:29.992Z,528
2024-05-09T14:06:44.206Z,596
2024-05-09T14:07:58.445Z,2047
2024-05-09T14:09:12.750Z,1591
2024-05-09T14:10:26.985Z,579
2024-05-09T14:11:41.210Z,1035
2024-05-09T14:12:55.437Z,2148
2024-05-09T14:14:09.668Z,2283
2024-05-09T14:15:23.963Z,2345
2024-05-09T14:16:38.212Z,2334
2024-05-09T14:17:52.436Z,2317
2024-05-09T14:19:06.671Z,2143
2024-05-09T14:20:20.889Z,2131
2024-05-09T14:21:35.187Z,2250
2024-05-09T14:22:49.426Z,2160
2024-05-09T14:24:03.659Z,2025
2024-05-09T14:25:17.876Z,2165
2024-05-09T14:26:32.122Z,2176
2024-05-09T14:27:46.411Z,2120
2024-05-09T14:29:00.652Z,2081
2024-05-09T14:30:14.883Z,2171
2024-05-09T14:31:29.180Z,2210
2024-05-09T14:32:42.511Z,2115
2024-05-09T14:33:56.787Z,2002
2024-05-09T14:35:10.085Z,2058
2024-05-09T14:36:24.306Z,1895
2024-05-09T14:37:38.602Z,1867
2024-05-09T14:38:52.857Z,1732
2024-05-09T14:40:07.088Z,1766
2024-05-09T14:42:35.525Z,1777
2024-05-09T14:43:49.828Z,1766
2024-05-09T14:45:04.081Z,1710
2024-05-09T14:46:18.313Z,1771
2024-05-09T14:47:32.539Z,1704
2024-05-09T14:48:46.759Z,1726
2024-05-09T14:50:01.059Z,1783
2024-05-09T14:51:15.309Z,1395
2024-05-09T14:52:29.530Z,1001
2024-05-09T14:53:43.764Z,821
2024-05-09T14:54:57.975Z,590
2024-05-09T14:57:26.536Z,483
2024-05-09T14:58:40.756Z,444
2024-05-09T14:59:54.976Z,410
2024-05-09T15:01:09.200Z,410
2024-05-09T15:02:23.499Z,393
2024-05-09T15:03:37.750Z,371
2024-05-09T15:04:51.972Z,360
2024-05-09T15:06:06.271Z,354
2024-05-09T15:07:20.553Z,360
2024-05-09T15:08:34.837Z,365
2024-05-09T15:09:49.134Z,371
2024-05-09T15:11:02.436Z,376
2024-05-09T15:12:16.667Z,371
2024-05-09T15:13:30.955Z,360
2024-05-09T15:14:45.198Z,348
2024-05-09T15:15:59.419Z,337
2024-05-09T15:17:13.661Z,320
2024-05-09T15:18:27.875Z,275
2024-05-09T15:19:42.173Z,275
2024-05-09T15:20:56.413Z,241
2024-05-09T15:22:10.638Z,236
2024-05-09T15:23:24.877Z,230
2024-05-09T15:24:39.098Z,225
2024-05-09T15:25:53.410Z,213
2024-05-09T15:27:07.638Z,219
2024-05-09T15:28:21.866Z,219
2024-05-09T15:29:36.093Z,219
2024-05-09T15:30:50.315Z,219
2024-05-09T15:32:04.615Z,213
2024-05-09T15:33:18.875Z,208
2024-05-09T15:34:33.083Z,208
2024-05-09T15:35:47.329Z,208
2024-05-09T15:37:01.543Z,202
2024-05-09T15:38:15.837Z,208
2024-05-09T15:39:30.078Z,208
2024-05-09T15:40:44.314Z,208
2024-05-09T15:41:58.598Z,208
2024-05-09T15:43:11.897Z,202
2024-05-09T15:44:26.144Z,202
2024-05-09T15:45:40.368Z,202
2024-05-09T15:46:54.586Z,202
2024-05-09T15:48:08.808Z,196
2024-05-09T15:49:23.122Z,196
2024-05-09T15:50:37.363Z,196
2024-05-09T15:51:51.584Z,191
2024-05-09T15:53:05.813Z,180
2024-05-09T15:54:20.029Z,174
2024-05-09T15:55:34.338Z,174
2024-05-09T15:56:48.577Z,168
2024-05-09T15:58:02.798Z,168
2024-05-09T15:59:17.037Z,168
2024-05-09T16:00:31.252Z,174
2024-05-09T16:01:45.567Z,180
2024-05-09T16:02:59.809Z,185
2024-05-09T16:04:14.031Z,185
2024-05-09T16:05:28.262Z,185
2024-05-09T16:06:42.480Z,180
2024-05-09T16:07:56.791Z,174
2024-05-09T16:09:11.017Z,174
2024-05-09T16:10:25.252Z,174
2024-05-09T16:11:39.466Z,174
2024-05-09T16:12:53.711Z,174
2024-05-09T16:14:08.066Z,174
2024-05-09T16:15:22.352Z,174
2024-05-09T16:16:35.631Z,180
2024-05-09T16:17:49.864Z,180
2024-05-09T16:19:04.174Z,180
2024-05-09T16:20:18.414Z,185
2024-05-09T16:21:32.631Z,180
2024-05-09T16:22:46.864Z,180
2024-05-09T16:24:01.088Z,180
2024-05-09T16:25:15.379Z,185
2024-05-09T16:26:29.624Z,180
2024-05-09T16:27:43.861Z,185
2024-05-09T16:28:58.085Z,180
2024-05-09T16:30:12.316Z,180
2024-05-09T16:31:26.611Z,180
2024-05-09T16:32:40.852Z,174
2024-05-09T16:33:55.067Z,174
2024-05-09T16:35:09.292Z,174
2024-05-09T16:36:23.521Z,168
2024-05-09T16:37:37.834Z,168
2024-05-09T16:38:52.074Z,168
2024-05-09T16:40:06.303Z,168
2024-05-09T16:41:20.512Z,168
2024-05-09T16:42:34.747Z,168
2024-05-09T16:43:49.048Z,174
2024-05-09T16:45:03.296Z,168
2024-05-09T16:46:17.521Z,168
2024-05-09T16:47:31.799Z,168
2024-05-09T16:48:45.099Z,174
2024-05-09T16:49:59.335Z,174
2024-05-09T16:51:13.557Z,174
2024-05-09T16:52:27.793Z,174
2024-05-09T16:53:42.014Z,174
2024-05-09T16:54:56.310Z,174
2024-05-09T16:56:10.557Z,174
2024-05-09T16:57:24.788Z,174
2024-05-09T16:58:39.009Z,174
2024-05-09T16:59:53.248Z,174
2024-05-09T17:01:07.540Z,174
2024-05-09T17:02:21.779Z,174
2024-05-09T17:03:35.997Z,174
2024-05-09T17:04:50.237Z,174
2024-05-09T17:06:04.453Z,174
2024-05-09T17:07:18.760Z,174
2024-05-09T17:08:33.006Z,174
2024-05-09T17:09:47.227Z,174
2024-05-09T17:11:01.444Z,168
2024-05-09T17:12:15.687Z,168
2024-05-09T17:13:29.982Z,163
2024-05-09T17:14:44.228Z,163
2024-05-09T17:15:58.453Z,157
2024-05-09T17:17:12.668Z,157
2024-05-09T17:18:26.906Z,151
2024-05-09T17:19:41.268Z,151
2024-05-09T17:20:55.548Z,151